sensor_id;sensor_type;location;lat;lon;timestamp;P1;durP1;ratioP1;P2;durP2;ratioP2
3979;SDS011;2004;52.452;13.120;2022-10-26T00:04:02;6.13;;;5.53;;
3979;SDS011;2004;52.452;13.120;2022-10-26T00:11:53;11.67;;;5.97;;
3979;SDS011;2004;52.452;13.120;2022-10-26T00:19:43;8.20;;;5.93;;
3979;SDS011;2004;52.452;13.120;2022-10-26T00:27:34;12.80;;;6.80;;
3979;SDS011;2004;52.452;13.120;2022-10-26T00:35:24;15.33;;;6.07;;
3979;SDS011;2004;52.452;13.120;2022-10-26T00:43:31;9.83;;;7.00;;
3979;SDS011;2004;52.452;13.120;2022-10-26T00:51:31;9.43;;;5.90;;
3979;SDS011;2004;52.452;13.120;2022-10-26T00:59:25;7.23;;;5.90;;
3979;SDS011;2004;52.452;13.120;2022-10-26T01:07:16;8.87;;;5.50;;
3979;SDS011;2004;52.452;13.120;2022-10-26T01:15:07;15.13;;;7.03;;
3979;SDS011;2004;52.452;13.120;2022-10-26T01:30:59;13.83;;;5.30;;
3979;SDS011;2004;52.452;13.120;2022-10-26T01:38:56;13.47;;;6.97;;
3979;SDS011;2004;52.452;13.120;2022-10-26T01:46:58;24.93;;;10.10;;
3979;SDS011;2004;52.452;13.120;2022-10-26T01:54:49;21.67;;;10.23;;
3979;SDS011;2004;52.452;13.120;2022-10-26T02:19:37;19.03;;;10.80;;
3979;SDS011;2004;52.452;13.120;2022-10-26T02:27:34;19.67;;;11.27;;
3979;SDS011;2004;52.452;13.120;2022-10-26T02:35:29;16.57;;;10.30;;
3979;SDS011;2004;52.452;13.120;2022-10-26T02:43:22;15.77;;;9.70;;
3979;SDS011;2004;52.452;13.120;2022-10-26T02:59:22;14.37;;;6.47;;
3979;SDS011;2004;52.452;13.120;2022-10-26T03:07:20;9.20;;;7.57;;
3979;SDS011;2004;52.452;13.120;2022-10-26T03:15:12;13.83;;;6.37;;
3979;SDS011;2004;52.452;13.120;2022-10-26T03:23:02;7.90;;;6.47;;
3979;SDS011;2004;52.452;13.120;2022-10-26T03:30:53;8.97;;;6.53;;
3979;SDS011;2004;52.452;13.120;2022-10-26T03:38:43;7.70;;;5.03;;
3979;SDS011;2004;52.452;13.120;2022-10-26T03:46:34;6.63;;;5.03;;
3979;SDS011;2004;52.452;13.120;2022-10-26T03:54:24;7.00;;;5.70;;
3979;SDS011;2004;52.452;13.120;2022-10-26T04:02:15;9.73;;;5.23;;
3979;SDS011;2004;52.452;13.120;2022-10-26T04:10:05;8.00;;;5.93;;
3979;SDS011;2004;52.452;13.120;2022-10-26T04:17:57;6.47;;;5.50;;
3979;SDS011;2004;52.452;13.120;2022-10-26T04:25:48;9.33;;;6.47;;
3979;SDS011;2004;52.452;13.120;2022-10-26T04:33:39;5.67;;;5.17;;
3979;SDS011;2004;52.452;13.120;2022-10-26T04:41:29;10.30;;;5.83;;
3979;SDS011;2004;52.452;13.120;2022-10-26T04:49:20;14.53;;;6.07;;
3979;SDS011;2004;52.452;13.120;2022-10-26T04:57:10;6.97;;;5.77;;
3979;SDS011;2004;52.452;13.120;2022-10-26T05:05:01;11.70;;;5.87;;
3979;SDS011;2004;52.452;13.120;2022-10-26T05:12:55;9.70;;;7.60;;
3979;SDS011;2004;52.452;13.120;2022-10-26T05:20:50;14.13;;;8.03;;
3979;SDS011;2004;52.452;13.120;2022-10-26T05:28:42;7.57;;;6.67;;
3979;SDS011;2004;52.452;13.120;2022-10-26T05:36:32;6.30;;;5.33;;
3979;SDS011;2004;52.452;13.120;2022-10-26T05:44:23;8.60;;;6.00;;
3979;SDS011;2004;52.452;13.120;2022-10-26T05:52:13;6.20;;;5.57;;
3979;SDS011;2004;52.452;13.120;2022-10-26T06:00:08;9.40;;;5.57;;
3979;SDS011;2004;52.452;13.120;2022-10-26T06:08:07;8.17;;;6.00;;
3979;SDS011;2004;52.452;13.120;2022-10-26T06:24:18;7.40;;;6.40;;
3979;SDS011;2004;52.452;13.120;2022-10-26T06:32:22;10.07;;;6.67;;
3979;SDS011;2004;52.452;13.120;2022-10-26T06:40:14;8.80;;;6.73;;
3979;SDS011;2004;52.452;13.120;2022-10-26T06:48:09;10.83;;;6.87;;
3979;SDS011;2004;52.452;13.120;2022-10-26T06:56:09;7.73;;;6.93;;
3979;SDS011;2004;52.452;13.120;2022-10-26T07:04:00;8.97;;;6.60;;
3979;SDS011;2004;52.452;13.120;2022-10-26T07:11:51;10.03;;;6.50;;
3979;SDS011;2004;52.452;13.120;2022-10-26T07:19:41;10.37;;;7.00;;
3979;SDS011;2004;52.452;13.120;2022-10-26T07:27:33;7.90;;;7.10;;
3979;SDS011;2004;52.452;13.120;2022-10-26T07:35:24;10.80;;;8.33;;
3979;SDS011;2004;52.452;13.120;2022-10-26T07:43:15;11.17;;;8.50;;
3979;SDS011;2004;52.452;13.120;2022-10-26T07:51:06;13.67;;;9.27;;
3979;SDS011;2004;52.452;13.120;2022-10-26T07:58:56;13.53;;;10.30;;
3979;SDS011;2004;52.452;13.120;2022-10-26T08:06:47;19.53;;;9.40;;
3979;SDS011;2004;52.452;13.120;2022-10-26T08:14:38;18.73;;;11.63;;
3979;SDS011;2004;52.452;13.120;2022-10-26T08:22:28;16.83;;;11.90;;
3979;SDS011;2004;52.452;13.120;2022-10-26T08:30:19;26.70;;;11.43;;
3979;SDS011;2004;52.452;13.120;2022-10-26T08:38:10;22.47;;;9.70;;
3979;SDS011;2004;52.452;13.120;2022-10-26T08:54:36;21.63;;;10.67;;
3979;SDS011;2004;52.452;13.120;2022-10-26T09:02:59;20.13;;;9.70;;
3979;SDS011;2004;52.452;13.120;2022-10-26T09:19:19;13.23;;;5.90;;
3979;SDS011;2004;52.452;13.120;2022-10-26T09:28:00;11.43;;;6.30;;
3979;SDS011;2004;52.452;13.120;2022-10-26T09:35:51;7.80;;;5.87;;
3979;SDS011;2004;52.452;13.120;2022-10-26T09:43:49;15.27;;;5.60;;
3979;SDS011;2004;52.452;13.120;2022-10-26T09:51:53;11.90;;;5.87;;
3979;SDS011;2004;52.452;13.120;2022-10-26T09:59:43;7.33;;;4.77;;
3979;SDS011;2004;52.452;13.120;2022-10-26T10:07:36;6.30;;;4.10;;
3979;SDS011;2004;52.452;13.120;2022-10-26T10:15:27;5.47;;;4.40;;
3979;SDS011;2004;52.452;13.120;2022-10-26T10:23:23;3.33;;;3.10;;
3979;SDS011;2004;52.452;13.120;2022-10-26T10:31:26;7.23;;;3.00;;
3979;SDS011;2004;52.452;13.120;2022-10-26T10:39:33;7.27;;;2.40;;
3979;SDS011;2004;52.452;13.120;2022-10-26T10:47:27;9.73;;;3.70;;
3979;SDS011;2004;52.452;13.120;2022-10-26T10:55:24;10.50;;;4.63;;
3979;SDS011;2004;52.452;13.120;2022-10-26T11:11:24;4.73;;;1.97;;
3979;SDS011;2004;52.452;13.120;2022-10-26T11:19:27;2.80;;;2.17;;
3979;SDS011;2004;52.452;13.120;2022-10-26T11:35:44;6.23;;;1.80;;
3979;SDS011;2004;52.452;13.120;2022-10-26T11:43:45;3.17;;;2.00;;
3979;SDS011;2004;52.452;13.120;2022-10-26T11:59:35;6.63;;;1.83;;
3979;SDS011;2004;52.452;13.120;2022-10-26T12:07:32;5.60;;;1.97;;
3979;SDS011;2004;52.452;13.120;2022-10-26T12:16:16;4.10;;;1.70;;
3979;SDS011;2004;52.452;13.120;2022-10-26T12:23:53;5.03;;;1.90;;
3979;SDS011;2004;52.452;13.120;2022-10-26T12:31:46;1.80;;;1.70;;
3979;SDS011;2004;52.452;13.120;2022-10-26T12:39:37;5.90;;;1.73;;
3979;SDS011;2004;52.452;13.120;2022-10-26T13:11:54;2.63;;;1.50;;
3979;SDS011;2004;52.452;13.120;2022-10-26T13:19:47;1.10;;;1.00;;
3979;SDS011;2004;52.452;13.120;2022-10-26T13:27:39;4.73;;;1.47;;
3979;SDS011;2004;52.452;13.120;2022-10-26T13:35:31;4.00;;;1.27;;
3979;SDS011;2004;52.452;13.120;2022-10-26T13:43:23;2.33;;;1.40;;
3979;SDS011;2004;52.452;13.120;2022-10-26T13:51:18;3.17;;;1.17;;
3979;SDS011;2004;52.452;13.120;2022-10-26T13:59:12;1.77;;;1.30;;
3979;SDS011;2004;52.452;13.120;2022-10-26T14:07:04;2.10;;;1.53;;
3979;SDS011;2004;52.452;13.120;2022-10-26T14:15:07;4.73;;;2.17;;
3979;SDS011;2004;52.452;13.120;2022-10-26T14:22:58;4.10;;;1.97;;
3979;SDS011;2004;52.452;13.120;2022-10-26T14:30:49;3.43;;;1.90;;
3979;SDS011;2004;52.452;13.120;2022-10-26T14:38:44;6.20;;;1.73;;
3979;SDS011;2004;52.452;13.120;2022-10-26T14:46:37;5.13;;;1.50;;
3979;SDS011;2004;52.452;13.120;2022-10-26T14:54:32;4.83;;;1.80;;
3979;SDS011;2004;52.452;13.120;2022-10-26T15:02:23;12.77;;;3.00;;
3979;SDS011;2004;52.452;13.120;2022-10-26T15:18:27;3.10;;;1.60;;
3979;SDS011;2004;52.452;13.120;2022-10-26T15:26:22;4.60;;;1.93;;
3979;SDS011;2004;52.452;13.120;2022-10-26T15:34:13;5.03;;;2.80;;
3979;SDS011;2004;52.452;13.120;2022-10-26T15:42:04;5.40;;;2.77;;
3979;SDS011;2004;52.452;13.120;2022-10-26T15:50:02;3.60;;;3.23;;
3979;SDS011;2004;52.452;13.120;2022-10-26T15:57:53;4.13;;;2.90;;
3979;SDS011;2004;52.452;13.120;2022-10-26T16:05:43;4.03;;;3.50;;
3979;SDS011;2004;52.452;13.120;2022-10-26T16:13:34;6.00;;;2.90;;
3979;SDS011;2004;52.452;13.120;2022-10-26T16:21:24;6.03;;;3.30;;
3979;SDS011;2004;52.452;13.120;2022-10-26T16:29:15;5.63;;;2.90;;
3979;SDS011;2004;52.452;13.120;2022-10-26T16:37:05;15.80;;;5.80;;
3979;SDS011;2004;52.452;13.120;2022-10-26T16:44:56;14.70;;;7.80;;
3979;SDS011;2004;52.452;13.120;2022-10-26T16:52:47;21.77;;;10.90;;
3979;SDS011;2004;52.452;13.120;2022-10-26T17:00:37;21.40;;;10.47;;
3979;SDS011;2004;52.452;13.120;2022-10-26T17:08:28;29.00;;;14.07;;
3979;SDS011;2004;52.452;13.120;2022-10-26T17:16:21;24.47;;;13.67;;
3979;SDS011;2004;52.452;13.120;2022-10-26T17:24:12;25.10;;;14.53;;
3979;SDS011;2004;52.452;13.120;2022-10-26T17:32:03;23.63;;;13.90;;
3979;SDS011;2004;52.452;13.120;2022-10-26T17:39:53;26.27;;;14.20;;
3979;SDS011;2004;52.452;13.120;2022-10-26T17:47:44;34.63;;;19.50;;
3979;SDS011;2004;52.452;13.120;2022-10-26T17:55:34;40.27;;;20.07;;
3979;SDS011;2004;52.452;13.120;2022-10-26T18:03:25;34.97;;;18.50;;
3979;SDS011;2004;52.452;13.120;2022-10-26T18:11:16;28.37;;;15.13;;
3979;SDS011;2004;52.452;13.120;2022-10-26T18:19:09;26.50;;;13.93;;
3979;SDS011;2004;52.452;13.120;2022-10-26T18:27:00;19.23;;;12.20;;
3979;SDS011;2004;52.452;13.120;2022-10-26T18:34:50;14.30;;;8.90;;
3979;SDS011;2004;52.452;13.120;2022-10-26T18:42:41;32.67;;;18.43;;
3979;SDS011;2004;52.452;13.120;2022-10-26T18:50:33;24.50;;;14.77;;
3979;SDS011;2004;52.452;13.120;2022-10-26T18:58:27;30.13;;;13.27;;
3979;SDS011;2004;52.452;13.120;2022-10-26T19:06:19;16.30;;;9.30;;
3979;SDS011;2004;52.452;13.120;2022-10-26T19:14:12;18.00;;;10.60;;
3979;SDS011;2004;52.452;13.120;2022-10-26T19:22:02;20.10;;;8.73;;
3979;SDS011;2004;52.452;13.120;2022-10-26T19:29:53;11.57;;;8.10;;
3979;SDS011;2004;52.452;13.120;2022-10-26T19:37:43;9.57;;;6.57;;
3979;SDS011;2004;52.452;13.120;2022-10-26T19:45:34;7.03;;;5.10;;
3979;SDS011;2004;52.452;13.120;2022-10-26T19:53:25;11.83;;;4.93;;
3979;SDS011;2004;52.452;13.120;2022-10-26T20:01:16;12.50;;;5.70;;
3979;SDS011;2004;52.452;13.120;2022-10-26T20:09:07;11.83;;;6.33;;
3979;SDS011;2004;52.452;13.120;2022-10-26T20:16:58;9.67;;;6.63;;
3979;SDS011;2004;52.452;13.120;2022-10-26T20:24:48;12.80;;;6.23;;
3979;SDS011;2004;52.452;13.120;2022-10-26T20:32:38;9.87;;;6.30;;
3979;SDS011;2004;52.452;13.120;2022-10-26T20:40:29;8.40;;;6.33;;
3979;SDS011;2004;52.452;13.120;2022-10-26T20:48:20;11.00;;;6.37;;
3979;SDS011;2004;52.452;13.120;2022-10-26T20:56:18;8.47;;;5.97;;
3979;SDS011;2004;52.452;13.120;2022-10-26T21:04:12;13.70;;;5.27;;
3979;SDS011;2004;52.452;13.120;2022-10-26T21:12:03;7.60;;;5.50;;
3979;SDS011;2004;52.452;13.120;2022-10-26T21:19:53;7.43;;;5.30;;
3979;SDS011;2004;52.452;13.120;2022-10-26T21:27:44;13.83;;;6.03;;
3979;SDS011;2004;52.452;13.120;2022-10-26T21:35:34;14.30;;;5.50;;
3979;SDS011;2004;52.452;13.120;2022-10-26T21:43:25;9.30;;;4.77;;
3979;SDS011;2004;52.452;13.120;2022-10-26T21:51:16;7.23;;;5.40;;
3979;SDS011;2004;52.452;13.120;2022-10-26T21:59:09;7.50;;;5.10;;
3979;SDS011;2004;52.452;13.120;2022-10-26T22:06:59;10.40;;;5.83;;
3979;SDS011;2004;52.452;13.120;2022-10-26T22:14:50;6.23;;;5.20;;
3979;SDS011;2004;52.452;13.120;2022-10-26T22:22:40;11.70;;;5.70;;
3979;SDS011;2004;52.452;13.120;2022-10-26T22:30:31;10.97;;;6.00;;
3979;SDS011;2004;52.452;13.120;2022-10-26T22:38:25;12.17;;;4.97;;
3979;SDS011;2004;52.452;13.120;2022-10-26T22:46:16;4.83;;;4.40;;
3979;SDS011;2004;52.452;13.120;2022-10-26T22:54:11;9.93;;;5.07;;
3979;SDS011;2004;52.452;13.120;2022-10-26T23:02:02;8.93;;;4.17;;
3979;SDS011;2004;52.452;13.120;2022-10-26T23:09:52;7.90;;;4.73;;
3979;SDS011;2004;52.452;13.120;2022-10-26T23:17:42;9.77;;;5.20;;
3979;SDS011;2004;52.452;13.120;2022-10-26T23:25:33;15.70;;;5.50;;
3979;SDS011;2004;52.452;13.120;2022-10-26T23:33:23;5.00;;;4.50;;
3979;SDS011;2004;52.452;13.120;2022-10-26T23:41:14;9.83;;;4.37;;
3979;SDS011;2004;52.452;13.120;2022-10-26T23:49:05;5.43;;;4.50;;
3979;SDS011;2004;52.452;13.120;2022-10-26T23:56:55;6.50;;;4.10;;
